Terminal Aerodrome Forecast
Issued by NWS

Home | Current Version | Previous Version | Text Only | Print | Product List | Glossary On
Versions: 1 2 3 4 5 6 7 8 9 10 11 12 13 14 15 16 17 18 19 20 21 22 23 24 25 26 27 28 29 30
000
FTUS43 KLOT 271339 AAA
TAFMDW
TAF AMD
KMDW 271339Z 2714/2812 19011KT P6SM VCSH BKN020 BKN050 BKN250
     FM271600 19010KT P6SM SCT020 SCT100 BKN200
     FM271800 17010KT P6SM VCTS BKN040CB BKN250
     FM280000 18009KT P6SM SCT040 BKN120=

USA.gov is the U.S. government's official web portal to all federal, state and local government web resources and services.